Time;durP1;ratioP1;P1;durP2;ratioP2;P2;SDS_P1;SDS_P2;PMS_P1;PMS_P2;Temp;Humidity;BMP_temperature;BMP_pressure;BME280_temperature;BME280_humidity;BME280_pressure;Samples;Min_cycle;Max_cycle;Signal;HPM_P1;HPM_P2
2023/10/25 00:00:45;;;;;;;18.30;13.90;;;;;;;13.27;92.22;97137.79;224725;1283;22550;-78
2023/10/25 00:05:49;;;;;;;21.40;14.30;;;;;;;13.30;92.39;97130.88;224761;1286;23085;-78
2023/10/25 00:11:11;;;;;;;22.20;14.80;;;;;;;13.30;92.27;97127.22;224810;1286;22556;-78
2023/10/25 00:16:20;;;;;;;20.80;14.00;;;;;;;13.28;92.03;97119.97;224763;1287;22571;-78
2023/10/25 00:21:22;;;;;;;19.40;14.00;;;;;;;13.28;92.30;97110.33;224808;1289;24367;-78
2023/10/25 00:26:25;;;;;;;21.70;14.50;;;;;;;13.30;92.29;97104.98;224764;1271;22556;-78
2023/10/25 00:31:29;;;;;;;19.80;14.40;;;;;;;13.31;92.19;97097.73;224699;1288;22782;-78
2023/10/25 00:36:36;;;;;;;19.20;14.00;;;;;;;13.32;92.29;97089.80;224671;1288;22554;-78
2023/10/25 00:41:48;;;;;;;18.70;13.90;;;;;;;13.33;92.52;97087.11;224702;1289;22510;-78
2023/10/25 00:46:52;;;;;;;18.90;14.60;;;;;;;13.35;92.37;97087.34;224763;1283;25283;-78
2023/10/25 00:51:55;;;;;;;19.60;13.90;;;;;;;13.37;92.49;97086.70;224809;1286;22560;-78
2023/10/25 00:56:59;;;;;;;16.40;13.10;;;;;;;13.36;92.38;97084.22;224785;1289;22567;-78
2023/10/25 01:02:12;;;;;;;18.50;13.90;;;;;;;13.35;92.28;97081.08;224762;1289;22611;-78
2023/10/25 01:07:21;;;;;;;18.30;14.10;;;;;;;13.34;92.03;97080.69;224730;1289;22552;-78
2023/10/25 01:12:33;;;;;;;22.20;16.20;;;;;;;13.29;92.16;97080.36;224727;1286;22548;-78
2023/10/25 01:17:36;;;;;;;24.80;19.20;;;;;;;13.24;91.99;97082.15;224788;1285;22602;-78
2023/10/25 01:22:43;;;;;;;23.70;18.70;;;;;;;13.21;92.20;97092.77;224733;1289;23169;-77
2023/10/25 01:27:52;;;;;;;21.80;17.50;;;;;;;13.19;92.12;97085.06;224807;1289;22552;-77
2023/10/25 01:33:04;;;;;;;23.20;17.80;;;;;;;13.13;92.01;97090.33;224728;1289;22549;-78
2023/10/25 01:38:10;;;;;;;25.80;18.20;;;;;;;13.07;92.20;97085.56;224703;1289;22571;-78
2023/10/25 01:43:53;;;;;;;25.40;16.80;;;;;;;13.04;92.71;97085.91;224433;1289;389668;-78
2023/10/25 01:49:23;;;;;;;22.50;18.90;;;;;;;13.08;93.01;97090.45;224709;1289;22549;-78
2023/10/25 01:54:26;;;;;;;28.10;22.10;;;;;;;13.12;93.21;97097.34;224826;1289;23758;-78
2023/10/25 01:59:29;;;;;;;26.50;21.80;;;;;;;13.11;93.10;97095.27;224797;1289;22678;-78
2023/10/25 02:04:40;;;;;;;30.00;20.90;;;;;;;13.06;92.95;97090.48;224795;1287;22556;-78
2023/10/25 02:09:43;;;;;;;29.10;21.70;;;;;;;13.06;92.90;97093.50;224717;1286;24344;-79
2023/10/25 02:14:46;;;;;;;27.50;20.90;;;;;;;13.03;92.92;97092.80;224770;1289;24941;-78
2023/10/25 02:19:49;;;;;;;27.30;20.40;;;;;;;13.00;92.76;97088.17;224759;1289;22547;-77
2023/10/25 02:25:02;;;;;;;20.70;18.00;;;;;;;12.97;92.81;97088.62;224866;1286;23733;-77
2023/10/25 02:30:06;;;;;;;20.40;17.30;;;;;;;12.95;92.59;97086.79;224784;1287;22569;-77
2023/10/25 02:35:23;;;;;;;20.50;16.20;;;;;;;12.92;92.63;97082.83;224765;1286;22575;-78
2023/10/25 02:40:30;;;;;;;18.30;16.00;;;;;;;12.90;92.48;97078.93;224771;1286;24805;-78
2023/10/25 02:45:33;;;;;;;23.50;16.90;;;;;;;12.90;92.53;97078.09;224758;1286;23794;-77
2023/10/25 02:50:37;;;;;;;19.20;16.00;;;;;;;12.88;92.57;97077.00;224771;1272;22567;-77
2023/10/25 02:55:47;;;;;;;16.90;14.40;;;;;;;12.86;92.44;97079.51;224766;1289;22543;-77
2023/10/25 03:00:50;;;;;;;15.00;13.40;;;;;;;12.83;92.48;97089.53;224802;1287;22561;-77
2023/10/25 03:05:53;;;;;;;17.80;14.80;;;;;;;12.78;92.22;97097.15;224620;1289;24236;-77
2023/10/25 03:11:26;;;;;;;19.40;16.40;;;;;;;12.72;92.17;97100.62;224745;1286;22577;-78
2023/10/25 03:16:29;;;;;;;19.70;16.60;;;;;;;12.67;92.35;97103.39;224763;1287;25290;-78
2023/10/25 03:21:38;;;;;;;22.50;17.10;;;;;;;12.63;92.38;97106.13;224727;1288;22556;-78
2023/10/25 03:27:07;;;;;;;20.30;16.30;;;;;;;12.58;92.48;97111.60;224730;1289;22538;-78
2023/10/25 03:32:10;;;;;;;22.10;16.30;;;;;;;12.57;92.47;97115.88;224791;1289;22553;-77
2023/10/25 03:37:16;;;;;;;21.30;16.40;;;;;;;12.56;92.51;97112.39;224794;1289;25287;-77
2023/10/25 03:42:39;;;;;;;18.60;16.50;;;;;;;12.54;92.47;97111.95;224769;1286;22548;-77
2023/10/25 03:47:52;;;;;;;21.30;16.70;;;;;;;12.52;92.54;97116.63;224791;1289;22578;-78
2023/10/25 03:52:55;;;;;;;20.70;17.50;;;;;;;12.51;92.58;97116.91;224790;1289;22691;-78
2023/10/25 03:57:58;;;;;;;23.90;18.70;;;;;;;12.50;92.51;97117.54;224694;1289;22577;-78
2023/10/25 04:03:00;;;;;;;22.50;18.40;;;;;;;12.49;92.67;97109.57;224800;1289;22549;-79
2023/10/25 04:08:06;;;;;;;22.60;19.30;;;;;;;12.48;92.65;97111.20;224765;1289;22563;-78
2023/10/25 04:13:32;;;;;;;26.40;19.20;;;;;;;12.48;92.85;97120.36;224752;1289;22668;-79
2023/10/25 04:18:39;;;;;;;20.10;17.90;;;;;;;12.46;92.68;97117.80;224769;1286;22561;-79
2023/10/25 04:23:44;;;;;;;21.40;17.10;;;;;;;12.44;92.84;97120.23;224762;1286;22553;-79
2023/10/25 04:28:50;;;;;;;21.90;17.10;;;;;;;12.44;92.79;97121.05;224765;1285;22602;-78
2023/10/25 04:33:52;;;;;;;21.40;18.50;;;;;;;12.40;92.74;97128.63;224719;1289;22564;-79
2023/10/25 04:38:55;;;;;;;29.30;21.10;;;;;;;12.39;92.80;97130.93;224677;1289;22645;-79
2023/10/25 04:43:58;;;;;;;23.70;20.30;;;;;;;12.37;92.84;97131.58;224677;1289;26197;-79
2023/10/25 04:49:20;;;;;;;;;;;;;;;;;;;;;
2023/10/25 04:54:30;;;;;;;31.10;24.00;;;;;;;12.30;93.00;97144.88;224756;1289;22556;-79
2023/10/25 04:59:45;;;;;;;34.10;23.50;;;;;;;12.28;92.83;97151.84;224689;1289;22558;-79
2023/10/25 05:05:03;;;;;;;26.70;21.30;;;;;;;12.25;92.96;97164.81;224746;1267;22559;-79
2023/10/25 05:10:12;;;;;;;30.90;23.70;;;;;;;12.24;93.01;97179.14;224713;1286;22559;-78
2023/10/25 05:15:17;;;;;;;26.10;20.50;;;;;;;12.23;93.10;97187.42;224702;1289;22680;-80
2023/10/25 05:20:23;;;;;;;28.70;21.20;;;;;;;12.21;92.91;97196.98;224813;1289;22774;-77
2023/10/25 05:25:36;;;;;;;25.30;21.00;;;;;;;12.21;93.12;97208.95;224818;1289;22725;-77
2023/10/25 05:30:43;;;;;;;26.20;20.90;;;;;;;12.20;92.96;97218.08;224798;1286;22553;-79
2023/10/25 05:35:46;;;;;;;24.00;19.60;;;;;;;12.17;92.73;97223.49;224780;1289;22593;-79
2023/10/25 05:40:51;;;;;;;22.10;17.40;;;;;;;12.14;92.60;97232.29;224705;1267;22555;-77
2023/10/25 05:45:56;;;;;;;19.80;17.70;;;;;;;12.11;92.58;97238.95;224557;1287;24253;-79
2023/10/25 05:51:06;;;;;;;19.00;16.90;;;;;;;12.09;92.56;97247.21;224505;1283;25338;-79
2023/10/25 05:56:17;;;;;;;17.00;14.70;;;;;;;12.06;92.49;97255.94;224509;1279;22552;-74
2023/10/25 06:01:34;;;;;;;18.60;15.00;;;;;;;12.05;92.41;97273.80;224193;1276;22554;-77
2023/10/25 06:06:40;;;;;;;21.00;15.30;;;;;;;12.03;92.44;97287.23;224100;1274;22564;-76
2023/10/25 06:11:43;;;;;;;22.10;16.80;;;;;;;11.99;92.20;97294.32;224345;1273;22568;-77
2023/10/25 06:16:48;;;;;;;20.10;16.60;;;;;;;11.98;92.25;97300.80;224232;1267;22662;-78
2023/10/25 06:21:50;;;;;;;19.50;16.10;;;;;;;11.95;92.12;97301.15;224039;1286;22579;-78
2023/10/25 06:27:02;;;;;;;21.10;16.40;;;;;;;11.94;92.23;97307.28;224154;1273;22545;-78
2023/10/25 06:32:05;;;;;;;19.50;15.20;;;;;;;11.94;92.11;97316.00;224023;1279;22672;-77
2023/10/25 06:37:08;;;;;;;17.80;13.80;;;;;;;11.94;92.07;97320.08;224213;1273;22485;-77
2023/10/25 06:42:12;;;;;;;14.70;12.30;;;;;;;11.94;91.92;97322.56;224198;1279;22564;-77
2023/10/25 06:47:15;;;;;;;14.20;12.70;;;;;;;11.95;91.77;97320.98;224087;1273;22572;-77
2023/10/25 06:52:18;;;;;;;16.10;13.40;;;;;;;11.97;91.74;97332.69;224101;1276;22954;-77
2023/10/25 06:57:21;;;;;;;14.10;12.30;;;;;;;11.99;91.59;97329.30;224013;1276;24408;-78
2023/10/25 07:02:36;;;;;;;14.60;12.10;;;;;;;12.01;91.41;97337.66;224136;1280;22556;-76
2023/10/25 07:07:53;;;;;;;;;;;;;;;;;;;;;
2023/10/25 07:12:59;;;;;;;13.70;11.70;;;;;;;12.05;91.30;97343.59;224374;1279;22521;-77
2023/10/25 07:18:06;;;;;;;12.20;10.80;;;;;;;12.09;91.26;97340.35;224541;1282;22794;-77
2023/10/25 07:23:17;;;;;;;13.80;11.70;;;;;;;12.13;91.20;97342.52;224421;1281;23098;-77
2023/10/25 07:28:23;;;;;;;14.00;12.10;;;;;;;12.17;91.01;97338.77;224302;1288;22571;-76
2023/10/25 07:33:28;;;;;;;15.50;11.20;;;;;;;12.21;90.92;97338.69;224514;1288;22553;-77
2023/10/25 07:38:57;;;;;;;13.60;12.20;;;;;;;12.28;91.00;97343.66;224409;1282;22553;-76
2023/10/25 07:44:04;;;;;;;13.30;12.00;;;;;;;12.31;90.72;97350.58;224538;1289;22568;-76
2023/10/25 07:49:08;;;;;;;13.00;11.60;;;;;;;12.35;90.77;97351.94;224466;1286;22557;-77
2023/10/25 07:54:13;;;;;;;12.80;10.90;;;;;;;12.42;90.72;97351.00;224490;1283;23065;-77
2023/10/25 07:59:28;;;;;;;;;;;;;;;;;;;;;
2023/10/25 08:04:52;;;;;;;11.00;9.00;;;;;;;12.57;90.45;97353.83;224443;1283;22561;-79
2023/10/25 08:09:58;;;;;;;12.10;9.60;;;;;;;12.62;90.21;97357.59;224507;1283;22579;-79
2023/10/25 08:15:24;;;;;;;11.10;9.70;;;;;;;12.66;90.24;97362.48;224588;1283;22556;-78
2023/10/25 08:21:14;;;;;;;10.00;8.60;;;;;;;12.66;90.01;97361.70;224520;1273;22619;-77
2023/10/25 08:26:40;;;;;;;9.70;8.30;;;;;;;12.67;89.86;97361.23;224629;1286;22576;-79
2023/10/25 08:31:49;;;;;;;8.90;7.20;;;;;;;12.75;89.93;97366.20;224486;1283;22560;-79
2023/10/25 08:36:54;;;;;;;7.00;6.10;;;;;;;12.83;89.70;97374.47;224548;1289;22565;-78
2023/10/25 08:42:01;;;;;;;6.10;5.60;;;;;;;12.91;89.52;97371.21;224559;1290;22725;-79
2023/10/25 08:47:13;;;;;;;4.50;4.00;;;;;;;13.05;89.48;97372.16;224514;1282;25890;-79
2023/10/25 08:52:23;;;;;;;4.30;3.90;;;;;;;13.11;89.04;97369.17;224426;1286;22723;-79
2023/10/25 08:57:31;;;;;;;4.80;3.00;;;;;;;13.14;88.75;97380.02;224563;1289;22699;-76
2023/10/25 09:02:39;;;;;;;5.20;3.60;;;;;;;13.16;88.54;97386.92;224554;1282;22720;-77
2023/10/25 09:07:56;;;;;;;4.50;3.70;;;;;;;13.16;88.40;97398.74;224129;1286;22576;-80
2023/10/25 09:13:11;;;;;;;9.00;6.50;;;;;;;13.12;88.53;97395.14;224516;1267;23105;-79
2023/10/25 09:18:17;;;;;;;4.30;3.90;;;;;;;13.10;88.51;97399.61;224430;1289;22595;-79
2023/10/25 09:23:33;;;;;;;4.30;3.80;;;;;;;13.15;88.59;97401.24;224502;1289;22574;-79
2023/10/25 09:28:36;;;;;;;5.30;3.70;;;;;;;13.26;88.79;97400.02;224393;1267;22586;-81
2023/10/25 09:34:02;;;;;;;9.80;3.80;;;;;;;13.29;88.45;97405.23;224409;1270;22552;-79
2023/10/25 09:39:36;;;;;;;;;;;;;;;;;;;;;
2023/10/25 09:44:59;;;;;;;6.30;4.00;;;;;;;13.21;88.22;97412.15;224334;1273;22581;-79
2023/10/25 09:50:32;;;;;;;4.80;4.30;;;;;;;13.22;88.54;97411.30;224297;1288;22625;-79
2023/10/25 09:55:45;;;;;;;5.50;4.90;;;;;;;13.23;88.40;97415.63;224375;1290;22565;-79
2023/10/25 10:00:47;;;;;;;5.90;5.20;;;;;;;13.25;88.30;97425.84;224369;1286;22579;-79
2023/10/25 10:06:00;;;;;;;7.70;5.70;;;;;;;13.27;88.21;97432.73;224361;1289;22563;-78
2023/10/25 10:11:18;;;;;;;4.10;3.80;;;;;;;13.29;88.16;97436.64;224473;1270;22601;-79
2023/10/25 10:16:47;;;;;;;4.40;4.00;;;;;;;13.35;87.86;97434.48;224401;1283;22553;-79
2023/10/25 10:22:09;;;;;;;;;;;;;;;13.43;87.80;97434.08;224514;1285;22984;-80
2023/10/25 10:27:25;;;;;;;4.70;4.30;;;;;;;13.54;87.53;97436.16;224582;1286;22604;-79
2023/10/25 10:32:33;;;;;;;5.30;4.60;;;;;;;13.63;87.57;97435.79;224537;1286;22710;-78
2023/10/25 10:37:54;;;;;;;6.20;5.10;;;;;;;13.75;87.22;97431.59;224442;1282;22658;-78
2023/10/25 10:42:57;;;;;;;5.70;4.70;;;;;;;13.84;86.90;97436.02;224324;1273;22552;-78
2023/10/25 10:48:37;;;;;;;5.40;4.90;;;;;;;13.88;86.47;97439.59;224452;1288;22953;-78
2023/10/25 10:53:52;;;;;;;4.50;4.10;;;;;;;13.88;86.53;97443.00;224550;1283;22551;-77
2023/10/25 10:58:58;;;;;;;4.40;3.40;;;;;;;13.78;85.46;97443.27;224511;1286;22548;-78
2023/10/25 11:04:21;;;;;;;3.80;3.10;;;;;;;13.73;85.50;97446.52;224499;1286;22576;-78
2023/10/25 11:09:32;;;;;;;3.20;2.80;;;;;;;13.80;85.36;97443.61;224334;1286;22734;-78
2023/10/25 11:14:40;;;;;;;2.60;2.40;;;;;;;14.01;85.02;97437.04;224138;1284;22552;-78
2023/10/25 11:19:59;;;;;;;2.70;2.50;;;;;;;14.23;84.68;97439.48;224171;1280;23087;-78
2023/10/25 11:25:24;;;;;;;;;;;;;;;;;;;;;
2023/10/25 11:30:26;;;;;;;2.10;2.00;;;;;;;14.72;83.69;97447.92;224259;1284;22540;-77
2023/10/25 11:35:33;;;;;;;2.10;2.00;;;;;;;14.90;82.98;97449.27;224186;1286;22554;-76
2023/10/25 11:40:43;;;;;;;2.10;1.90;;;;;;;15.00;82.45;97451.66;224399;1288;22608;-77
2023/10/25 11:45:49;;;;;;;2.20;2.00;;;;;;;15.10;82.26;97447.73;224476;1274;22576;-77
2023/10/25 11:50:56;;;;;;;2.50;2.30;;;;;;;15.20;82.32;97444.23;224533;1285;22563;-77
2023/10/25 11:55:59;;;;;;;2.70;2.50;;;;;;;15.26;81.47;97444.25;224422;1279;22797;-77
2023/10/25 12:01:53;;;;;;;;;;;;;;;;;;;;;
2023/10/25 12:07:10;;;;;;;2.00;1.80;;;;;;;15.22;80.33;97432.38;224506;1283;22566;-81
2023/10/25 12:12:43;;;;;;;2.40;2.20;;;;;;;15.43;80.20;97425.77;224543;1280;22552;-81
2023/10/25 12:17:51;;;;;;;2.20;2.00;;;;;;;15.44;79.59;97411.41;224628;1283;22563;-80
2023/10/25 12:23:48;;;;;;;1.70;1.60;;;;;;;15.34;79.73;97421.75;224546;1289;24332;-80
2023/10/25 12:29:24;;;;;;;;;;;;;;;;;;;;;
2023/10/25 12:35:17;;;;;;;2.10;1.80;;;;;;;15.06;79.33;97415.30;224641;1267;22578;-80
2023/10/25 12:40:32;;;;;;;2.00;1.80;;;;;;;14.87;79.45;97408.39;224570;1288;22564;-80
2023/10/25 12:45:40;;;;;;;2.50;1.60;;;;;;;14.74;78.61;97394.98;224670;1281;22592;-81
2023/10/25 12:51:12;;;;;;;2.70;2.00;;;;;;;14.56;78.71;97396.23;224573;1290;25287;-81
2023/10/25 12:56:32;;;;;;;;;;;;;;;;;;;;;
2023/10/25 13:01:45;;;;;;;2.10;1.90;;;;;;;14.33;78.94;97396.59;224479;1282;22702;-81
2023/10/25 13:07:19;;;;;;;2.50;2.20;;;;;;;14.24;78.91;97404.75;224656;1283;22560;-81
2023/10/25 13:12:57;;;;;;;2.60;2.20;;;;;;;14.29;79.24;97407.10;223718;1288;22571;-81
2023/10/25 13:18:12;;;;;;;2.50;2.30;;;;;;;14.38;79.43;97403.98;224191;1275;24234;-80
2023/10/25 13:24:15;;;;;;;2.70;2.30;;;;;;;14.48;79.17;97403.56;224063;1293;24284;-81
2023/10/25 13:29:27;;;;;;;1.80;1.70;;;;;;;14.48;78.51;97405.70;223736;1294;22563;-79
2023/10/25 13:34:46;;;;;;;3.90;2.00;;;;;;;14.40;78.39;97410.88;223789;1286;22572;-82
2023/10/25 13:39:52;;;;;;;4.40;1.80;;;;;;;14.28;78.39;97405.96;223875;1292;22555;-81
2023/10/25 13:45:07;;;;;;;2.30;2.10;;;;;;;14.18;78.53;97398.17;219883;1291;5407419;-82
2023/10/25 13:50:29;;;;;;;2.00;1.80;;;;;;;14.14;78.71;97394.72;223815;1286;25325;-83
2023/10/25 13:55:45;;;;;;;2.10;2.00;;;;;;;14.11;78.78;97400.05;223750;1286;22617;-83
2023/10/25 14:00:51;;;;;;;3.40;2.50;;;;;;;14.09;78.74;97402.85;223639;1286;23142;-83
2023/10/25 14:06:15;;;;;;;;;;;;;;;;;;;;;
2023/10/25 14:12:00;;;;;;;3.00;2.30;;;;;;;14.11;79.23;97405.14;223719;1289;22555;-83
2023/10/25 14:17:36;;;;;;;3.00;2.70;;;;;;;14.16;79.46;97405.17;224158;1294;23303;-83
2023/10/25 14:23:38;;;;;;;3.60;2.50;;;;;;;14.23;79.77;97397.30;224371;1294;25463;-83
2023/10/25 14:29:05;;;;;;;3.60;2.60;;;;;;;14.25;79.48;97391.73;224308;1294;22756;-82
2023/10/25 14:34:37;;;;;;;3.00;2.60;;;;;;;14.25;79.80;97388.70;224450;1294;22594;-83
2023/10/25 14:39:45;;;;;;;3.20;2.70;;;;;;;14.21;79.41;97391.48;224500;1291;22692;-83
2023/10/25 14:45:10;;;;;;;3.90;3.00;;;;;;;14.20;79.81;97391.47;224227;1276;22613;-83
2023/10/25 14:50:15;;;;;;;3.30;3.00;;;;;;;14.21;79.59;97386.01;224306;1294;22691;-83
2023/10/25 14:55:29;;;;;;;3.00;2.80;;;;;;;14.20;79.62;97383.75;224263;1292;22562;-83
2023/10/25 15:01:01;;;;;;;4.40;2.90;;;;;;;14.16;79.60;97374.14;224210;1292;22568;-83
2023/10/25 15:07:33;;;;;;;;;;;;;;;;;;;;;
2023/10/25 15:13:25;;;;;;;5.10;4.00;;;;;;;14.12;79.52;97363.25;224259;1293;22555;-83
2023/10/25 15:19:37;;;;;;;;;;;;;;;;;;;;;
2023/10/25 15:26:32;;;;;;;;;;;;;;;;;;;;;
2023/10/25 15:32:16;;;;;;;;;;;;;;;;;;;;;
2023/10/25 15:38:21;;;;;;;4.90;3.90;;;;;;;13.86;80.30;97342.49;223032;1299;22552;-83
2023/10/25 15:43:31;;;;;;;4.20;3.80;;;;;;;13.77;80.62;97337.23;223599;1296;22769;-83
2023/10/25 15:49:00;;;;;;;4.40;4.00;;;;;;;13.68;80.78;97333.26;223915;1296;25402;-83
2023/10/25 15:54:23;;;;;;;6.00;4.80;;;;;;;13.57;80.85;97335.81;223951;1279;22562;-83
2023/10/25 15:59:52;;;;;;;;;;;;;;;;;;;;;
2023/10/25 16:05:24;;;;;;;4.90;4.40;;;;;;;13.21;81.11;97335.70;224481;1293;22555;-83
2023/10/25 16:11:22;;;;;;;6.10;4.50;;;;;;;12.92;81.18;97334.81;224282;1294;24224;-82
2023/10/25 16:16:57;;;;;;;6.00;4.70;;;;;;;12.70;81.53;97331.01;224393;1270;22592;-82
2023/10/25 16:23:15;;;;;;;6.70;5.50;;;;;;;12.45;82.10;97330.64;223442;1297;22570;-82
2023/10/25 16:28:40;;;;;;;6.90;5.80;;;;;;;12.21;82.25;97337.59;222285;1302;22580;-83
2023/10/25 16:33:55;;;;;;;7.10;6.30;;;;;;;12.01;82.37;97334.79;222206;1302;22588;-84
2023/10/25 16:40:03;;;;;;;8.40;6.50;;;;;;;11.82;82.79;97338.45;222642;1298;22569;-84
2023/10/25 16:45:49;;;;;;;;;;;;;;;;;;;;;
2023/10/25 16:51:42;;;;;;;63.90;41.80;;;;;;;11.44;83.41;97339.88;224485;1294;22562;-83
2023/10/25 16:57:15;;;;;;;51.70;37.10;;;;;;;11.27;83.38;97334.02;224452;1294;22605;-83
2023/10/25 17:02:33;;;;;;;53.20;37.50;;;;;;;11.13;83.81;97336.48;224416;1294;22584;-83
2023/10/25 17:07:59;;;;;;;156.80;118.60;;;;;;;10.98;83.93;97340.12;224401;1276;22589;-82
2023/10/25 17:13:27;;;;;;;86.60;53.40;;;;;;;10.84;84.12;97334.55;224435;1292;22562;-84
2023/10/25 17:18:42;;;;;;;64.20;43.60;;;;;;;10.69;84.30;97333.45;224464;1294;22561;-84
2023/10/25 17:24:43;;;;;;;66.40;44.40;;;;;;;10.55;84.48;97329.25;224040;1296;22569;-83
2023/10/25 17:30:21;;;;;;;;;;;;;;;;;;;;;
2023/10/25 17:35:53;;;;;;;81.30;53.20;;;;;;;10.28;84.70;97313.96;223901;1285;22854;-82
2023/10/25 17:41:07;;;;;;;79.10;50.50;;;;;;;10.15;84.97;97308.16;223876;1295;22567;-84
2023/10/25 17:46:28;;;;;;;94.30;64.20;;;;;;;10.05;85.23;97308.80;223931;1296;22572;-83
2023/10/25 17:51:33;;;;;;;76.20;49.20;;;;;;;9.95;85.53;97299.34;223582;1296;22603;-83
2023/10/25 18:02:40;;;;;;;74.80;48.90;;;;;;;9.77;85.73;97285.51;224468;1293;24362;-84
2023/10/25 18:07:54;;;;;;;71.30;46.50;;;;;;;9.69;85.94;97281.84;224408;1292;22563;-84
2023/10/25 18:13:02;;;;;;;57.20;36.50;;;;;;;9.65;86.39;97281.25;224453;1294;22559;-82
2023/10/25 18:18:23;;;;;;;185.70;150.10;;;;;;;9.62;86.51;97273.70;224464;1276;24348;-84
2023/10/25 18:23:35;;;;;;;35.60;25.30;;;;;;;9.59;86.76;97269.95;224450;1292;22591;-82
2023/10/25 18:28:45;;;;;;;32.10;23.70;;;;;;;9.54;86.66;97266.63;224247;1281;22558;-82
2023/10/25 18:34:22;;;;;;;27.80;20.20;;;;;;;9.46;86.69;97264.00;224238;1293;24205;-82
2023/10/25 18:39:41;;;;;;;35.90;25.60;;;;;;;9.38;86.82;97259.45;224438;1294;22566;-82
2023/10/25 18:45:33;;;;;;;41.70;28.00;;;;;;;9.30;86.90;97253.65;224425;1294;22543;-84
2023/10/25 18:50:45;;;;;;;38.50;27.20;;;;;;;9.24;87.21;97251.22;224408;1294;22765;-83
2023/10/25 18:56:06;;;;;;;51.40;36.20;;;;;;;9.16;87.31;97246.68;224236;1294;22546;-83
2023/10/25 19:02:05;;;;;;;46.90;32.30;;;;;;;9.08;87.24;97249.58;224398;1292;22612;-83
2023/10/25 19:07:33;;;;;;;56.80;39.50;;;;;;;9.00;87.44;97249.13;224371;1293;22581;-84
2023/10/25 19:12:45;;;;;;;64.10;43.40;;;;;;;8.95;87.29;97241.80;224475;1294;22573;-83
2023/10/25 19:18:22;;;;;;;;;;;;;;;;;;;;;
2023/10/25 19:23:54;;;;;;;78.50;53.90;;;;;;;8.83;87.75;97241.20;224489;1293;22562;-84
2023/10/25 19:29:26;;;;;;;83.70;57.90;;;;;;;8.73;87.53;97244.33;224309;1294;22586;-83
2023/10/25 19:34:52;;;;;;;101.90;70.00;;;;;;;8.67;87.98;97241.04;224525;1294;22545;-83
2023/10/25 19:40:04;;;;;;;99.60;66.90;;;;;;;8.60;87.97;97230.68;224144;1294;22599;-82
2023/10/25 19:45:28;;;;;;;104.20;74.60;;;;;;;8.53;87.85;97228.46;224344;1294;22563;-84
2023/10/25 19:50:49;;;;;;;101.00;70.80;;;;;;;8.43;88.10;97228.91;224202;1293;22566;-82
2023/10/25 19:56:28;;;;;;;;;;;;;;;;;;;;;
2023/10/25 20:02:33;;;;;;;98.60;66.70;;;;;;;8.29;88.66;97226.81;224213;1294;22570;-83
2023/10/25 20:08:31;;;;;;;86.80;61.90;;;;;;;8.25;88.22;97219.67;224450;1294;22520;-83
2023/10/25 20:14:02;;;;;;;85.20;60.70;;;;;;;8.23;88.51;97219.35;224429;1293;22558;-84
2023/10/25 20:19:18;;;;;;;91.10;64.20;;;;;;;8.23;89.01;97221.74;224401;1294;22562;-83
2023/10/25 20:24:37;;;;;;;;;;;;;;;;;;;;;
2023/10/25 20:30:03;;;;;;;75.30;53.30;;;;;;;8.19;89.17;97214.30;224445;1289;22573;-83
2023/10/25 20:35:21;;;;;;;79.50;54.30;;;;;;;8.23;89.63;97212.02;224420;1294;23300;-83
2023/10/25 20:40:58;;;;;;;75.70;53.80;;;;;;;8.31;89.58;97210.70;224423;1294;22592;-84
2023/10/25 20:46:31;;;;;;;66.80;48.50;;;;;;;8.41;89.65;97218.79;223467;1292;22542;-83
2023/10/25 20:51:49;;;;;;;70.00;48.30;;;;;;;8.55;89.96;97212.13;223593;1297;22565;-83
2023/10/25 20:57:07;;;;;;;79.20;50.80;;;;;;;8.67;89.71;97207.59;223376;1297;22566;-83
2023/10/25 21:02:32;;;;;;;;;;;;;;;8.71;89.52;97202.38;223378;1288;22554;-83
2023/10/25 21:08:21;;;;;;;;;;;;;;;;;;;;;
2023/10/25 21:14:04;;;;;;;77.10;49.80;;;;;;;8.63;89.44;97198.00;223669;1294;22570;-83
2023/10/25 21:20:43;;;;;;;;;;;;;;;;;;;;;
2023/10/25 21:26:31;;;;;;;51.30;35.40;;;;;;;8.53;89.64;97192.95;224279;1293;22550;-83
2023/10/25 21:32:51;;;;;;;;;;;;;;;;;;;;;
2023/10/25 21:38:32;;;;;;;48.40;32.10;;;;;;;8.60;89.34;97175.81;224418;1293;22637;-83
2023/10/25 21:43:50;;;;;;;43.50;32.90;;;;;;;8.60;89.53;97169.82;224276;1294;23686;-83
2023/10/25 21:49:07;;;;;;;44.80;31.70;;;;;;;8.58;89.49;97166.06;224384;1294;22591;-83
2023/10/25 21:54:28;;;;;;;43.10;31.30;;;;;;;8.55;89.37;97163.26;224270;1294;25488;-83
2023/10/25 22:00:43;;;;;;;;;;;;;;;;;;;;;
2023/10/25 22:07:02;;;;;;;41.50;28.80;;;;;;;8.44;89.45;97148.24;224204;1293;22567;-82
2023/10/25 22:12:39;;;;;;;38.00;28.70;;;;;;;8.39;89.34;97142.32;224461;1294;22570;-82
2023/10/25 22:17:42;;;;;;;39.80;28.70;;;;;;;8.32;89.10;97146.57;223984;1292;22565;-83
2023/10/25 22:22:59;;;;;;;42.10;30.50;;;;;;;8.24;89.23;97140.86;223831;1295;23049;-82
2023/10/25 22:28:51;;;;;;;;;;;;;;;;;;;;;
2023/10/25 22:35:19;;;;;;;;;;;;;;;;;;;;;
2023/10/25 22:41:13;;;;;;;53.40;36.70;;;;;;;8.03;89.29;97145.85;223937;1296;22598;-82
2023/10/25 22:46:59;;;;;;;53.20;36.30;;;;;;;8.01;89.24;97143.32;224073;1294;22643;-82
2023/10/25 22:52:33;;;;;;;;;;;;;;;;;;;;;
2023/10/25 22:57:58;;;;;;;54.40;37.40;;;;;;;8.01;89.47;97140.38;224449;1292;22545;-83
2023/10/25 23:03:35;;;;;;;53.00;38.10;;;;;;;7.99;89.84;97133.92;224463;1290;22697;-83
2023/10/25 23:08:42;;;;;;;50.80;37.10;;;;;;;7.96;89.63;97125.39;224371;1294;22570;-82
2023/10/25 23:14:01;;;;;;;51.20;36.30;;;;;;;7.92;89.41;97124.32;224474;1294;22551;-82
2023/10/25 23:19:15;;;;;;;52.30;37.80;;;;;;;7.89;89.41;97121.06;224121;1293;22564;-83
2023/10/25 23:24:40;;;;;;;50.40;37.80;;;;;;;7.87;89.58;97112.33;224456;1293;22577;-83
2023/10/25 23:31:09;;;;;;;49.70;35.30;;;;;;;7.85;89.83;97107.48;224142;1288;24237;-83
2023/10/25 23:36:43;;;;;;;44.60;30.70;;;;;;;7.79;89.28;97106.27;224394;1294;22569;-83
2023/10/25 23:41:55;;;;;;;41.30;29.50;;;;;;;7.77;89.49;97098.00;224234;1294;22572;-82
2023/10/25 23:47:19;;;;;;;41.10;29.00;;;;;;;7.74;89.44;97093.96;224499;1294;25306;-82
2023/10/25 23:52:43;;;;;;;;;;;;;;;7.73;89.81;97099.15;224277;1293;22563;-84
2023/10/25 23:58:06;;;;;;;45.20;29.90;;;;;;;7.75;89.94;97096.84;224353;1292;22559;-82
